sensor_id;sensor_type;location;lat;lon;timestamp;P1;durP1;ratioP1;P2;durP2;ratioP2
68097;SDS011;54886;47.036;15.466;2022-07-23T00:00:00;9.73;;;6.10;;
68097;SDS011;54886;47.036;15.466;2022-07-23T00:02:27;8.15;;;5.72;;
68097;SDS011;54886;47.036;15.466;2022-07-23T00:04:52;9.98;;;6.00;;
68097;SDS011;54886;47.036;15.466;2022-07-23T00:07:18;8.90;;;5.72;;
68097;SDS011;54886;47.036;15.466;2022-07-23T00:09:43;8.25;;;5.80;;
68097;SDS011;54886;47.036;15.466;2022-07-23T00:12:08;7.88;;;5.60;;
68097;SDS011;54886;47.036;15.466;2022-07-23T00:14:34;9.43;;;5.70;;
68097;SDS011;54886;47.036;15.466;2022-07-23T00:16:59;7.20;;;5.65;;
68097;SDS011;54886;47.036;15.466;2022-07-23T00:19:25;7.88;;;5.85;;
68097;SDS011;54886;47.036;15.466;2022-07-23T00:21:50;8.65;;;6.20;;
68097;SDS011;54886;47.036;15.466;2022-07-23T00:24:16;8.82;;;6.15;;
68097;SDS011;54886;47.036;15.466;2022-07-23T00:26:41;8.82;;;5.90;;
68097;SDS011;54886;47.036;15.466;2022-07-23T00:29:06;9.55;;;6.13;;
68097;SDS011;54886;47.036;15.466;2022-07-23T00:31:32;9.45;;;6.45;;
68097;SDS011;54886;47.036;15.466;2022-07-23T00:33:57;10.45;;;6.13;;
68097;SDS011;54886;47.036;15.466;2022-07-23T00:36:26;8.25;;;6.10;;
68097;SDS011;54886;47.036;15.466;2022-07-23T00:38:52;9.43;;;5.97;;
68097;SDS011;54886;47.036;15.466;2022-07-23T00:41:17;8.70;;;5.90;;
68097;SDS011;54886;47.036;15.466;2022-07-23T00:43:43;8.85;;;5.90;;
68097;SDS011;54886;47.036;15.466;2022-07-23T00:46:08;10.35;;;6.13;;
68097;SDS011;54886;47.036;15.466;2022-07-23T00:48:34;7.03;;;5.53;;
68097;SDS011;54886;47.036;15.466;2022-07-23T00:50:59;9.02;;;6.30;;
68097;SDS011;54886;47.036;15.466;2022-07-23T00:53:25;10.48;;;5.60;;
68097;SDS011;54886;47.036;15.466;2022-07-23T00:55:50;9.77;;;5.93;;
68097;SDS011;54886;47.036;15.466;2022-07-23T00:58:16;9.15;;;5.90;;
68097;SDS011;54886;47.036;15.466;2022-07-23T01:00:42;12.40;;;6.03;;
68097;SDS011;54886;47.036;15.466;2022-07-23T01:03:08;8.43;;;5.75;;
68097;SDS011;54886;47.036;15.466;2022-07-23T01:05:33;8.80;;;6.20;;
68097;SDS011;54886;47.036;15.466;2022-07-23T01:07:59;10.48;;;6.40;;
68097;SDS011;54886;47.036;15.466;2022-07-23T01:10:25;8.32;;;6.57;;
68097;SDS011;54886;47.036;15.466;2022-07-23T01:12:58;9.25;;;7.22;;
68097;SDS011;54886;47.036;15.466;2022-07-23T01:15:41;9.02;;;6.80;;
68097;SDS011;54886;47.036;15.466;2022-07-23T01:18:07;9.27;;;6.35;;
68097;SDS011;54886;47.036;15.466;2022-07-23T01:20:35;9.47;;;6.67;;
68097;SDS011;54886;47.036;15.466;2022-07-23T01:23:00;11.15;;;6.88;;
68097;SDS011;54886;47.036;15.466;2022-07-23T01:25:26;10.32;;;6.40;;
68097;SDS011;54886;47.036;15.466;2022-07-23T01:27:51;12.32;;;6.50;;
68097;SDS011;54886;47.036;15.466;2022-07-23T01:30:18;8.93;;;7.03;;
68097;SDS011;54886;47.036;15.466;2022-07-23T01:32:44;8.07;;;6.18;;
68097;SDS011;54886;47.036;15.466;2022-07-23T01:35:09;9.43;;;6.60;;
68097;SDS011;54886;47.036;15.466;2022-07-23T01:37:35;8.18;;;6.25;;
68097;SDS011;54886;47.036;15.466;2022-07-23T01:40:02;8.90;;;6.53;;
68097;SDS011;54886;47.036;15.466;2022-07-23T01:42:27;9.65;;;6.72;;
68097;SDS011;54886;47.036;15.466;2022-07-23T01:44:53;9.20;;;6.32;;
68097;SDS011;54886;47.036;15.466;2022-07-23T01:47:18;8.50;;;6.25;;
68097;SDS011;54886;47.036;15.466;2022-07-23T01:49:44;9.05;;;6.85;;
68097;SDS011;54886;47.036;15.466;2022-07-23T01:52:09;9.48;;;6.50;;
68097;SDS011;54886;47.036;15.466;2022-07-23T01:54:36;8.18;;;6.68;;
68097;SDS011;54886;47.036;15.466;2022-07-23T01:57:03;9.38;;;6.80;;
68097;SDS011;54886;47.036;15.466;2022-07-23T01:59:29;10.65;;;6.88;;
68097;SDS011;54886;47.036;15.466;2022-07-23T02:01:55;10.23;;;7.00;;
68097;SDS011;54886;47.036;15.466;2022-07-23T02:04:21;9.50;;;7.22;;
68097;SDS011;54886;47.036;15.466;2022-07-23T02:06:48;12.02;;;6.95;;
68097;SDS011;54886;47.036;15.466;2022-07-23T02:09:14;9.18;;;7.03;;
68097;SDS011;54886;47.036;15.466;2022-07-23T02:11:39;10.68;;;7.00;;
68097;SDS011;54886;47.036;15.466;2022-07-23T02:14:05;9.25;;;7.10;;
68097;SDS011;54886;47.036;15.466;2022-07-23T02:16:30;9.02;;;7.35;;
68097;SDS011;54886;47.036;15.466;2022-07-23T02:18:56;10.23;;;7.18;;
68097;SDS011;54886;47.036;15.466;2022-07-23T02:21:22;10.57;;;6.70;;
68097;SDS011;54886;47.036;15.466;2022-07-23T02:23:47;10.02;;;6.85;;
68097;SDS011;54886;47.036;15.466;2022-07-23T02:26:13;9.15;;;6.95;;
68097;SDS011;54886;47.036;15.466;2022-07-23T02:28:38;9.27;;;6.75;;
68097;SDS011;54886;47.036;15.466;2022-07-23T02:31:03;10.02;;;6.68;;
68097;SDS011;54886;47.036;15.466;2022-07-23T02:33:29;9.07;;;6.90;;
68097;SDS011;54886;47.036;15.466;2022-07-23T02:35:55;9.77;;;7.03;;
68097;SDS011;54886;47.036;15.466;2022-07-23T02:38:20;10.00;;;6.80;;
68097;SDS011;54886;47.036;15.466;2022-07-23T02:40:46;9.45;;;6.93;;
68097;SDS011;54886;47.036;15.466;2022-07-23T02:43:11;8.63;;;6.82;;
68097;SDS011;54886;47.036;15.466;2022-07-23T02:45:37;10.43;;;6.82;;
68097;SDS011;54886;47.036;15.466;2022-07-23T02:48:02;13.27;;;7.28;;
68097;SDS011;54886;47.036;15.466;2022-07-23T02:50:28;14.10;;;7.60;;
68097;SDS011;54886;47.036;15.466;2022-07-23T02:52:53;9.52;;;7.00;;
68097;SDS011;54886;47.036;15.466;2022-07-23T02:55:19;11.38;;;7.40;;
68097;SDS011;54886;47.036;15.466;2022-07-23T02:57:44;10.82;;;6.75;;
68097;SDS011;54886;47.036;15.466;2022-07-23T03:00:09;11.60;;;7.25;;
68097;SDS011;54886;47.036;15.466;2022-07-23T03:02:35;11.18;;;6.97;;
68097;SDS011;54886;47.036;15.466;2022-07-23T03:05:01;10.00;;;7.25;;
68097;SDS011;54886;47.036;15.466;2022-07-23T03:07:26;8.85;;;6.72;;
68097;SDS011;54886;47.036;15.466;2022-07-23T03:09:52;9.45;;;7.20;;
68097;SDS011;54886;47.036;15.466;2022-07-23T03:12:17;9.38;;;7.07;;
68097;SDS011;54886;47.036;15.466;2022-07-23T03:14:43;8.57;;;6.70;;
68097;SDS011;54886;47.036;15.466;2022-07-23T03:17:08;9.32;;;6.53;;
68097;SDS011;54886;47.036;15.466;2022-07-23T03:19:34;10.07;;;7.20;;
68097;SDS011;54886;47.036;15.466;2022-07-23T03:22:00;9.45;;;7.00;;
68097;SDS011;54886;47.036;15.466;2022-07-23T03:24:25;10.68;;;6.80;;
68097;SDS011;54886;47.036;15.466;2022-07-23T03:27:10;8.55;;;6.85;;
68097;SDS011;54886;47.036;15.466;2022-07-23T03:29:36;9.52;;;6.82;;
68097;SDS011;54886;47.036;15.466;2022-07-23T03:32:02;8.75;;;6.85;;
68097;SDS011;54886;47.036;15.466;2022-07-23T03:34:28;10.40;;;6.80;;
68097;SDS011;54886;47.036;15.466;2022-07-23T03:36:53;12.32;;;7.40;;
68097;SDS011;54886;47.036;15.466;2022-07-23T03:39:19;10.50;;;6.78;;
68097;SDS011;54886;47.036;15.466;2022-07-23T03:41:44;8.75;;;7.00;;
68097;SDS011;54886;47.036;15.466;2022-07-23T03:44:10;10.43;;;7.10;;
68097;SDS011;54886;47.036;15.466;2022-07-23T03:46:35;11.38;;;6.68;;
68097;SDS011;54886;47.036;15.466;2022-07-23T03:49:00;9.00;;;6.82;;
68097;SDS011;54886;47.036;15.466;2022-07-23T03:51:26;9.52;;;6.68;;
68097;SDS011;54886;47.036;15.466;2022-07-23T03:53:51;8.45;;;6.78;;
68097;SDS011;54886;47.036;15.466;2022-07-23T03:56:17;9.88;;;6.97;;
68097;SDS011;54886;47.036;15.466;2022-07-23T03:58:42;11.43;;;7.47;;
68097;SDS011;54886;47.036;15.466;2022-07-23T04:01:08;8.57;;;6.80;;
68097;SDS011;54886;47.036;15.466;2022-07-23T04:03:33;9.80;;;6.93;;
68097;SDS011;54886;47.036;15.466;2022-07-23T04:05:58;10.15;;;6.68;;
68097;SDS011;54886;47.036;15.466;2022-07-23T04:08:24;10.05;;;7.22;;
68097;SDS011;54886;47.036;15.466;2022-07-23T04:10:50;8.43;;;6.63;;
68097;SDS011;54886;47.036;15.466;2022-07-23T04:13:15;9.07;;;6.70;;
68097;SDS011;54886;47.036;15.466;2022-07-23T04:15:41;8.90;;;6.68;;
68097;SDS011;54886;47.036;15.466;2022-07-23T04:18:06;8.93;;;6.75;;
68097;SDS011;54886;47.036;15.466;2022-07-23T04:20:33;12.55;;;6.88;;
68097;SDS011;54886;47.036;15.466;2022-07-23T04:22:58;9.70;;;6.97;;
68097;SDS011;54886;47.036;15.466;2022-07-23T04:25:24;12.80;;;7.30;;
68097;SDS011;54886;47.036;15.466;2022-07-23T04:27:49;11.93;;;7.53;;
68097;SDS011;54886;47.036;15.466;2022-07-23T04:30:14;10.65;;;6.97;;
68097;SDS011;54886;47.036;15.466;2022-07-23T04:32:40;9.52;;;7.20;;
68097;SDS011;54886;47.036;15.466;2022-07-23T04:35:05;10.43;;;7.35;;
68097;SDS011;54886;47.036;15.466;2022-07-23T04:37:31;11.65;;;7.40;;
68097;SDS011;54886;47.036;15.466;2022-07-23T04:39:56;11.00;;;7.68;;
68097;SDS011;54886;47.036;15.466;2022-07-23T04:42:22;12.43;;;8.05;;
68097;SDS011;54886;47.036;15.466;2022-07-23T04:44:47;10.80;;;7.93;;
68097;SDS011;54886;47.036;15.466;2022-07-23T04:47:13;13.27;;;8.35;;
68097;SDS011;54886;47.036;15.466;2022-07-23T04:49:38;11.55;;;8.60;;
68097;SDS011;54886;47.036;15.466;2022-07-23T04:52:03;16.52;;;9.00;;
68097;SDS011;54886;47.036;15.466;2022-07-23T04:54:29;16.15;;;8.82;;
68097;SDS011;54886;47.036;15.466;2022-07-23T04:56:54;12.57;;;8.80;;
68097;SDS011;54886;47.036;15.466;2022-07-23T04:59:20;12.52;;;8.95;;
68097;SDS011;54886;47.036;15.466;2022-07-23T05:01:45;13.93;;;8.90;;
68097;SDS011;54886;47.036;15.466;2022-07-23T05:04:11;10.23;;;8.48;;
68097;SDS011;54886;47.036;15.466;2022-07-23T05:06:36;11.43;;;9.30;;
68097;SDS011;54886;47.036;15.466;2022-07-23T05:09:02;11.10;;;8.55;;
68097;SDS011;54886;47.036;15.466;2022-07-23T05:11:27;12.18;;;8.93;;
68097;SDS011;54886;47.036;15.466;2022-07-23T05:13:53;11.18;;;8.95;;
68097;SDS011;54886;47.036;15.466;2022-07-23T05:16:18;11.60;;;9.07;;
68097;SDS011;54886;47.036;15.466;2022-07-23T05:18:43;14.20;;;9.45;;
68097;SDS011;54886;47.036;15.466;2022-07-23T05:21:09;13.30;;;8.93;;
68097;SDS011;54886;47.036;15.466;2022-07-23T05:23:34;13.77;;;8.80;;
68097;SDS011;54886;47.036;15.466;2022-07-23T05:26:00;13.07;;;9.25;;
68097;SDS011;54886;47.036;15.466;2022-07-23T05:28:25;13.70;;;9.30;;
68097;SDS011;54886;47.036;15.466;2022-07-23T05:30:51;11.02;;;9.73;;
68097;SDS011;54886;47.036;15.466;2022-07-23T05:33:19;13.70;;;9.40;;
68097;SDS011;54886;47.036;15.466;2022-07-23T05:35:45;11.40;;;9.45;;
68097;SDS011;54886;47.036;15.466;2022-07-23T05:38:10;12.32;;;9.27;;
68097;SDS011;54886;47.036;15.466;2022-07-23T05:40:36;13.05;;;9.88;;
68097;SDS011;54886;47.036;15.466;2022-07-23T05:43:01;12.23;;;9.65;;
68097;SDS011;54886;47.036;15.466;2022-07-23T05:45:27;12.88;;;9.27;;
68097;SDS011;54886;47.036;15.466;2022-07-23T05:47:52;10.90;;;9.57;;
68097;SDS011;54886;47.036;15.466;2022-07-23T05:50:18;12.90;;;10.07;;
68097;SDS011;54886;47.036;15.466;2022-07-23T05:52:43;12.93;;;9.45;;
68097;SDS011;54886;47.036;15.466;2022-07-23T05:55:09;14.23;;;9.23;;
68097;SDS011;54886;47.036;15.466;2022-07-23T05:57:36;14.07;;;9.80;;
68097;SDS011;54886;47.036;15.466;2022-07-23T06:00:02;13.48;;;9.68;;
68097;SDS011;54886;47.036;15.466;2022-07-23T06:02:29;13.93;;;9.73;;
68097;SDS011;54886;47.036;15.466;2022-07-23T06:04:54;12.38;;;9.45;;
68097;SDS011;54886;47.036;15.466;2022-07-23T06:07:20;13.20;;;9.70;;
68097;SDS011;54886;47.036;15.466;2022-07-23T06:09:45;12.30;;;9.68;;
68097;SDS011;54886;47.036;15.466;2022-07-23T06:12:12;13.03;;;9.33;;
68097;SDS011;54886;47.036;15.466;2022-07-23T06:14:38;11.55;;;8.85;;
68097;SDS011;54886;47.036;15.466;2022-07-23T06:17:03;12.15;;;8.98;;
68097;SDS011;54886;47.036;15.466;2022-07-23T06:19:28;13.60;;;9.88;;
68097;SDS011;54886;47.036;15.466;2022-07-23T06:21:54;12.43;;;9.48;;
68097;SDS011;54886;47.036;15.466;2022-07-23T06:24:19;14.00;;;9.60;;
68097;SDS011;54886;47.036;15.466;2022-07-23T06:26:45;12.32;;;9.50;;
68097;SDS011;54886;47.036;15.466;2022-07-23T06:29:10;10.85;;;8.48;;
68097;SDS011;54886;47.036;15.466;2022-07-23T06:31:36;14.25;;;9.00;;
68097;SDS011;54886;47.036;15.466;2022-07-23T06:34:02;9.43;;;8.30;;
68097;SDS011;54886;47.036;15.466;2022-07-23T06:36:28;14.20;;;9.45;;
68097;SDS011;54886;47.036;15.466;2022-07-23T06:38:53;10.98;;;9.00;;
68097;SDS011;54886;47.036;15.466;2022-07-23T06:41:18;16.88;;;10.40;;
68097;SDS011;54886;47.036;15.466;2022-07-23T06:43:44;14.27;;;9.90;;
68097;SDS011;54886;47.036;15.466;2022-07-23T06:46:09;10.68;;;9.00;;
68097;SDS011;54886;47.036;15.466;2022-07-23T06:48:35;11.98;;;8.88;;
68097;SDS011;54886;47.036;15.466;2022-07-23T06:51:01;10.15;;;8.77;;
68097;SDS011;54886;47.036;15.466;2022-07-23T06:53:27;10.65;;;8.85;;
68097;SDS011;54886;47.036;15.466;2022-07-23T06:55:53;11.80;;;9.52;;
68097;SDS011;54886;47.036;15.466;2022-07-23T06:58:18;12.05;;;9.07;;
68097;SDS011;54886;47.036;15.466;2022-07-23T07:00:44;11.05;;;9.23;;
68097;SDS011;54886;47.036;15.466;2022-07-23T07:03:10;12.25;;;9.13;;
68097;SDS011;54886;47.036;15.466;2022-07-23T07:05:35;11.52;;;9.75;;
68097;SDS011;54886;47.036;15.466;2022-07-23T07:08:01;10.18;;;8.93;;
68097;SDS011;54886;47.036;15.466;2022-07-23T07:10:26;10.90;;;9.00;;
68097;SDS011;54886;47.036;15.466;2022-07-23T07:12:52;16.85;;;9.05;;
68097;SDS011;54886;47.036;15.466;2022-07-23T07:15:17;12.45;;;8.85;;
68097;SDS011;54886;47.036;15.466;2022-07-23T07:17:42;11.95;;;8.75;;
68097;SDS011;54886;47.036;15.466;2022-07-23T07:20:08;13.10;;;9.50;;
68097;SDS011;54886;47.036;15.466;2022-07-23T07:22:34;10.60;;;8.73;;
68097;SDS011;54886;47.036;15.466;2022-07-23T07:25:00;13.07;;;9.07;;
68097;SDS011;54886;47.036;15.466;2022-07-23T07:27:26;13.20;;;9.48;;
68097;SDS011;54886;47.036;15.466;2022-07-23T07:29:51;13.38;;;9.10;;
68097;SDS011;54886;47.036;15.466;2022-07-23T07:32:17;12.20;;;9.40;;
68097;SDS011;54886;47.036;15.466;2022-07-23T07:34:42;12.48;;;9.63;;
68097;SDS011;54886;47.036;15.466;2022-07-23T07:37:07;13.25;;;9.15;;
68097;SDS011;54886;47.036;15.466;2022-07-23T07:39:33;12.02;;;8.88;;
68097;SDS011;54886;47.036;15.466;2022-07-23T07:41:58;14.52;;;10.02;;
68097;SDS011;54886;47.036;15.466;2022-07-23T07:44:24;13.07;;;9.18;;
68097;SDS011;54886;47.036;15.466;2022-07-23T07:46:49;14.30;;;9.25;;
68097;SDS011;54886;47.036;15.466;2022-07-23T07:49:14;11.65;;;9.02;;
68097;SDS011;54886;47.036;15.466;2022-07-23T07:51:42;13.15;;;8.43;;
68097;SDS011;54886;47.036;15.466;2022-07-23T07:54:07;11.25;;;8.25;;
68097;SDS011;54886;47.036;15.466;2022-07-23T07:56:33;12.52;;;8.27;;
68097;SDS011;54886;47.036;15.466;2022-07-23T07:58:58;10.55;;;7.80;;
68097;SDS011;54886;47.036;15.466;2022-07-23T08:01:24;13.73;;;7.75;;
68097;SDS011;54886;47.036;15.466;2022-07-23T08:03:50;14.20;;;8.38;;
68097;SDS011;54886;47.036;15.466;2022-07-23T08:06:15;11.77;;;7.78;;
68097;SDS011;54886;47.036;15.466;2022-07-23T08:08:41;11.63;;;8.32;;
68097;SDS011;54886;47.036;15.466;2022-07-23T08:11:06;9.57;;;7.10;;
68097;SDS011;54886;47.036;15.466;2022-07-23T08:13:32;9.20;;;7.20;;
68097;SDS011;54886;47.036;15.466;2022-07-23T08:15:57;10.50;;;8.00;;
68097;SDS011;54886;47.036;15.466;2022-07-23T08:18:23;9.70;;;7.50;;
68097;SDS011;54886;47.036;15.466;2022-07-23T08:20:48;12.77;;;7.93;;
68097;SDS011;54886;47.036;15.466;2022-07-23T08:23:13;10.48;;;7.93;;
68097;SDS011;54886;47.036;15.466;2022-07-23T08:25:40;9.80;;;7.65;;
68097;SDS011;54886;47.036;15.466;2022-07-23T08:28:09;9.43;;;7.63;;
68097;SDS011;54886;47.036;15.466;2022-07-23T08:30:37;11.35;;;7.68;;
68097;SDS011;54886;47.036;15.466;2022-07-23T08:33:04;11.13;;;8.07;;
68097;SDS011;54886;47.036;15.466;2022-07-23T08:35:37;9.88;;;7.53;;
68097;SDS011;54886;47.036;15.466;2022-07-23T08:38:04;10.80;;;7.45;;
68097;SDS011;54886;47.036;15.466;2022-07-23T08:40:34;11.00;;;7.68;;
68097;SDS011;54886;47.036;15.466;2022-07-23T08:43:06;9.43;;;7.78;;
68097;SDS011;54886;47.036;15.466;2022-07-23T08:45:37;10.25;;;7.88;;
68097;SDS011;54886;47.036;15.466;2022-07-23T08:48:13;9.93;;;7.90;;
68097;SDS011;54886;47.036;15.466;2022-07-23T08:50:44;10.25;;;7.63;;
68097;SDS011;54886;47.036;15.466;2022-07-23T08:53:13;9.43;;;7.30;;
68097;SDS011;54886;47.036;15.466;2022-07-23T08:55:39;10.55;;;8.05;;
68097;SDS011;54886;47.036;15.466;2022-07-23T08:58:05;10.80;;;7.78;;
68097;SDS011;54886;47.036;15.466;2022-07-23T09:00:31;14.18;;;7.40;;
68097;SDS011;54886;47.036;15.466;2022-07-23T09:02:56;11.25;;;7.60;;
68097;SDS011;54886;47.036;15.466;2022-07-23T09:05:22;9.50;;;7.90;;
68097;SDS011;54886;47.036;15.466;2022-07-23T09:15:54;11.10;;;7.85;;
68097;SDS011;54886;47.036;15.466;2022-07-23T09:18:31;10.63;;;7.90;;
68097;SDS011;54886;47.036;15.466;2022-07-23T09:23:42;12.55;;;7.88;;
68097;SDS011;54886;47.036;15.466;2022-07-23T09:26:35;12.35;;;7.82;;
68097;SDS011;54886;47.036;15.466;2022-07-23T09:31:44;10.27;;;7.38;;
68097;SDS011;54886;47.036;15.466;2022-07-23T09:36:47;10.95;;;7.75;;
68097;SDS011;54886;47.036;15.466;2022-07-23T09:39:14;10.93;;;8.07;;
68097;SDS011;54886;47.036;15.466;2022-07-23T09:41:43;11.05;;;8.25;;
68097;SDS011;54886;47.036;15.466;2022-07-23T09:44:17;11.20;;;8.07;;
68097;SDS011;54886;47.036;15.466;2022-07-23T09:46:47;10.15;;;7.90;;
68097;SDS011;54886;47.036;15.466;2022-07-23T09:49:21;13.48;;;7.60;;
68097;SDS011;54886;47.036;15.466;2022-07-23T09:54:23;9.13;;;7.18;;
68097;SDS011;54886;47.036;15.466;2022-07-23T09:56:56;9.95;;;7.60;;
68097;SDS011;54886;47.036;15.466;2022-07-23T09:59:24;10.45;;;7.40;;
68097;SDS011;54886;47.036;15.466;2022-07-23T10:01:52;12.10;;;7.40;;
68097;SDS011;54886;47.036;15.466;2022-07-23T10:04:22;9.50;;;6.85;;
68097;SDS011;54886;47.036;15.466;2022-07-23T10:06:53;12.65;;;7.10;;
68097;SDS011;54886;47.036;15.466;2022-07-23T10:09:24;15.25;;;7.03;;
68097;SDS011;54886;47.036;15.466;2022-07-23T10:11:55;9.18;;;6.80;;
68097;SDS011;54886;47.036;15.466;2022-07-23T10:14:42;8.82;;;7.00;;
68097;SDS011;54886;47.036;15.466;2022-07-23T10:17:08;9.43;;;6.20;;
68097;SDS011;54886;47.036;15.466;2022-07-23T10:19:34;8.70;;;6.45;;
68097;SDS011;54886;47.036;15.466;2022-07-23T10:30:02;11.02;;;6.25;;
68097;SDS011;54886;47.036;15.466;2022-07-23T10:32:44;9.25;;;6.57;;
68097;SDS011;54886;47.036;15.466;2022-07-23T10:35:39;9.02;;;6.50;;
68097;SDS011;54886;47.036;15.466;2022-07-23T10:41:01;10.73;;;6.63;;
68097;SDS011;54886;47.036;15.466;2022-07-23T10:43:29;8.75;;;6.10;;
68097;SDS011;54886;47.036;15.466;2022-07-23T10:45:55;9.15;;;6.10;;
68097;SDS011;54886;47.036;15.466;2022-07-23T10:48:41;9.95;;;6.45;;
68097;SDS011;54886;47.036;15.466;2022-07-23T10:51:14;10.63;;;6.30;;
68097;SDS011;54886;47.036;15.466;2022-07-23T10:59:17;8.85;;;6.20;;
68097;SDS011;54886;47.036;15.466;2022-07-23T11:01:43;9.70;;;6.25;;
68097;SDS011;54886;47.036;15.466;2022-07-23T11:04:08;8.98;;;6.30;;
68097;SDS011;54886;47.036;15.466;2022-07-23T11:09:24;9.98;;;6.45;;
68097;SDS011;54886;47.036;15.466;2022-07-23T11:12:35;9.63;;;6.65;;
68097;SDS011;54886;47.036;15.466;2022-07-23T11:22:46;9.63;;;6.88;;
68097;SDS011;54886;47.036;15.466;2022-07-23T11:27:53;10.20;;;6.72;;
68097;SDS011;54886;47.036;15.466;2022-07-23T11:32:53;8.55;;;6.85;;
68097;SDS011;54886;47.036;15.466;2022-07-23T11:35:43;8.02;;;6.30;;
68097;SDS011;54886;47.036;15.466;2022-07-23T11:40:43;8.30;;;6.57;;
68097;SDS011;54886;47.036;15.466;2022-07-23T11:43:10;11.10;;;6.43;;
68097;SDS011;54886;47.036;15.466;2022-07-23T11:45:38;7.88;;;6.38;;
68097;SDS011;54886;47.036;15.466;2022-07-23T11:48:04;8.50;;;6.07;;
68097;SDS011;54886;47.036;15.466;2022-07-23T11:50:31;11.93;;;6.25;;
68097;SDS011;54886;47.036;15.466;2022-07-23T11:52:57;9.77;;;6.20;;
68097;SDS011;54886;47.036;15.466;2022-07-23T11:55:23;9.00;;;6.37;;
68097;SDS011;54886;47.036;15.466;2022-07-23T11:57:50;10.00;;;6.30;;
68097;SDS011;54886;47.036;15.466;2022-07-23T12:00:24;9.52;;;6.28;;
68097;SDS011;54886;47.036;15.466;2022-07-23T12:02:54;8.77;;;6.20;;
68097;SDS011;54886;47.036;15.466;2022-07-23T12:05:25;8.15;;;5.88;;
68097;SDS011;54886;47.036;15.466;2022-07-23T12:07:55;7.20;;;5.50;;
68097;SDS011;54886;47.036;15.466;2022-07-23T12:15:30;8.80;;;5.70;;
68097;SDS011;54886;47.036;15.466;2022-07-23T12:17:58;7.70;;;6.07;;
68097;SDS011;54886;47.036;15.466;2022-07-23T12:20:25;9.80;;;6.00;;
68097;SDS011;54886;47.036;15.466;2022-07-23T12:23:03;9.38;;;6.00;;
68097;SDS011;54886;47.036;15.466;2022-07-23T12:25:32;8.50;;;5.85;;
68097;SDS011;54886;47.036;15.466;2022-07-23T12:28:03;9.60;;;6.05;;
68097;SDS011;54886;47.036;15.466;2022-07-23T12:30:41;8.65;;;5.78;;
68097;SDS011;54886;47.036;15.466;2022-07-23T12:33:09;7.78;;;6.13;;
68097;SDS011;54886;47.036;15.466;2022-07-23T12:35:39;9.40;;;5.85;;
68097;SDS011;54886;47.036;15.466;2022-07-23T12:38:08;9.68;;;5.32;;
68097;SDS011;54886;47.036;15.466;2022-07-23T12:43:32;7.97;;;5.60;;
68097;SDS011;54886;47.036;15.466;2022-07-23T12:46:08;8.52;;;5.70;;
68097;SDS011;54886;47.036;15.466;2022-07-23T12:51:15;7.93;;;5.93;;
68097;SDS011;54886;47.036;15.466;2022-07-23T12:53:44;7.72;;;5.40;;
68097;SDS011;54886;47.036;15.466;2022-07-23T12:58:44;7.07;;;5.50;;
68097;SDS011;54886;47.036;15.466;2022-07-23T13:03:54;7.50;;;5.60;;
68097;SDS011;54886;47.036;15.466;2022-07-23T13:06:23;8.52;;;5.80;;
68097;SDS011;54886;47.036;15.466;2022-07-23T13:08:49;7.67;;;5.60;;
68097;SDS011;54886;47.036;15.466;2022-07-23T13:11:14;7.87;;;5.80;;
68097;SDS011;54886;47.036;15.466;2022-07-23T13:13:39;8.47;;;6.20;;
68097;SDS011;54886;47.036;15.466;2022-07-23T13:16:06;8.27;;;5.93;;
68097;SDS011;54886;47.036;15.466;2022-07-23T13:18:31;8.37;;;6.10;;
68097;SDS011;54886;47.036;15.466;2022-07-23T13:20:57;8.30;;;5.77;;
68097;SDS011;54886;47.036;15.466;2022-07-23T13:23:23;7.28;;;5.65;;
68097;SDS011;54886;47.036;15.466;2022-07-23T13:25:49;7.63;;;5.80;;
68097;SDS011;54886;47.036;15.466;2022-07-23T13:28:15;8.63;;;6.00;;
68097;SDS011;54886;47.036;15.466;2022-07-23T13:30:42;8.20;;;5.88;;
68097;SDS011;54886;47.036;15.466;2022-07-23T13:33:08;8.48;;;5.80;;
68097;SDS011;54886;47.036;15.466;2022-07-23T13:35:35;9.02;;;6.00;;
68097;SDS011;54886;47.036;15.466;2022-07-23T13:38:02;7.35;;;5.85;;
68097;SDS011;54886;47.036;15.466;2022-07-23T13:40:33;7.30;;;6.05;;
68097;SDS011;54886;47.036;15.466;2022-07-23T13:43:03;7.50;;;5.90;;
68097;SDS011;54886;47.036;15.466;2022-07-23T13:45:30;8.02;;;5.70;;
68097;SDS011;54886;47.036;15.466;2022-07-23T13:47:55;7.43;;;5.97;;
68097;SDS011;54886;47.036;15.466;2022-07-23T13:50:21;10.30;;;6.40;;
68097;SDS011;54886;47.036;15.466;2022-07-23T13:52:46;8.17;;;6.03;;
68097;SDS011;54886;47.036;15.466;2022-07-23T13:55:12;8.10;;;5.67;;
68097;SDS011;54886;47.036;15.466;2022-07-23T13:57:37;7.87;;;6.20;;
68097;SDS011;54886;47.036;15.466;2022-07-23T14:00:04;8.30;;;5.80;;
68097;SDS011;54886;47.036;15.466;2022-07-23T14:02:32;7.85;;;6.05;;
68097;SDS011;54886;47.036;15.466;2022-07-23T14:04:57;7.20;;;5.63;;
68097;SDS011;54886;47.036;15.466;2022-07-23T14:07:22;7.60;;;5.80;;
68097;SDS011;54886;47.036;15.466;2022-07-23T14:09:48;7.30;;;5.60;;
68097;SDS011;54886;47.036;15.466;2022-07-23T14:12:14;7.80;;;5.63;;
68097;SDS011;54886;47.036;15.466;2022-07-23T14:14:39;8.10;;;5.43;;
68097;SDS011;54886;47.036;15.466;2022-07-23T14:17:04;7.83;;;5.70;;
68097;SDS011;54886;47.036;15.466;2022-07-23T14:19:30;8.83;;;6.13;;
68097;SDS011;54886;47.036;15.466;2022-07-23T14:21:56;7.43;;;5.60;;
68097;SDS011;54886;47.036;15.466;2022-07-23T14:24:21;7.10;;;5.40;;
68097;SDS011;54886;47.036;15.466;2022-07-23T14:26:46;7.47;;;6.00;;
68097;SDS011;54886;47.036;15.466;2022-07-23T14:29:12;7.47;;;5.63;;
68097;SDS011;54886;47.036;15.466;2022-07-23T14:31:37;8.27;;;5.40;;
68097;SDS011;54886;47.036;15.466;2022-07-23T14:34:03;6.73;;;5.23;;
68097;SDS011;54886;47.036;15.466;2022-07-23T14:36:28;6.90;;;5.30;;
68097;SDS011;54886;47.036;15.466;2022-07-23T14:38:54;6.97;;;5.30;;
68097;SDS011;54886;47.036;15.466;2022-07-23T14:41:19;7.60;;;5.30;;
68097;SDS011;54886;47.036;15.466;2022-07-23T14:43:45;9.80;;;6.00;;
68097;SDS011;54886;47.036;15.466;2022-07-23T14:46:11;8.13;;;5.67;;
68097;SDS011;54886;47.036;15.466;2022-07-23T14:48:37;8.20;;;5.72;;
68097;SDS011;54886;47.036;15.466;2022-07-23T14:51:03;7.37;;;5.40;;
68097;SDS011;54886;47.036;15.466;2022-07-23T14:53:29;9.23;;;5.50;;
68097;SDS011;54886;47.036;15.466;2022-07-23T14:55:55;7.43;;;5.40;;
68097;SDS011;54886;47.036;15.466;2022-07-23T14:58:22;9.80;;;5.70;;
68097;SDS011;54886;47.036;15.466;2022-07-23T15:00:48;8.70;;;5.75;;
68097;SDS011;54886;47.036;15.466;2022-07-23T15:03:14;8.03;;;5.43;;
68097;SDS011;54886;47.036;15.466;2022-07-23T15:05:39;10.23;;;6.07;;
68097;SDS011;54886;47.036;15.466;2022-07-23T15:08:05;7.77;;;5.87;;
68097;SDS011;54886;47.036;15.466;2022-07-23T15:10:30;8.87;;;6.07;;
68097;SDS011;54886;47.036;15.466;2022-07-23T15:12:55;8.73;;;6.27;;
68097;SDS011;54886;47.036;15.466;2022-07-23T15:15:21;8.20;;;5.93;;
68097;SDS011;54886;47.036;15.466;2022-07-23T15:17:46;8.50;;;6.00;;
68097;SDS011;54886;47.036;15.466;2022-07-23T15:20:12;9.07;;;5.80;;
68097;SDS011;54886;47.036;15.466;2022-07-23T15:22:37;8.33;;;5.63;;
68097;SDS011;54886;47.036;15.466;2022-07-23T15:25:03;7.50;;;5.73;;
68097;SDS011;54886;47.036;15.466;2022-07-23T15:27:29;8.25;;;6.05;;
68097;SDS011;54886;47.036;15.466;2022-07-23T15:29:54;7.37;;;5.63;;
68097;SDS011;54886;47.036;15.466;2022-07-23T15:32:20;7.30;;;5.80;;
68097;SDS011;54886;47.036;15.466;2022-07-23T15:34:45;7.27;;;5.50;;